createdAt,value
2018-06-16T00:46:21.398Z,16.90
2018-06-16T00:51:25.841Z,14.90
2018-06-16T00:56:30.314Z,14.70
2018-06-16T01:01:34.870Z,14.40
2018-06-16T01:06:39.444Z,14.20
2018-06-16T01:11:43.987Z,14.30
2018-06-16T01:16:48.574Z,14.10
2018-06-16T01:21:53.206Z,14.30
2018-06-16T01:26:57.850Z,14.10
2018-06-16T01:32:02.452Z,13.90
2018-06-16T01:37:07.014Z,13.70
2018-06-16T01:42:11.788Z,13.70
2018-06-16T01:47:16.600Z,13.60
2018-06-16T01:52:21.269Z,13.50
2018-06-16T01:57:25.803Z,13.50
2018-06-16T02:02:30.352Z,13.60
2018-06-16T02:07:35.032Z,13.30
2018-06-16T02:12:39.488Z,13.20
2018-06-16T02:17:43.949Z,13.10
2018-06-16T02:22:48.605Z,13.10
2018-06-16T02:27:52.983Z,12.90
2018-06-16T02:32:57.524Z,12.80
2018-06-16T02:38:01.985Z,12.80
2018-06-16T02:43:06.683Z,12.70
2018-06-16T02:48:11.511Z,12.60
2018-06-16T02:53:16.174Z,12.60
2018-06-16T02:58:20.822Z,12.50
2018-06-16T03:03:25.461Z,12.50
2018-06-16T03:08:30.301Z,12.50
2018-06-16T03:13:34.856Z,12.30
2018-06-16T03:18:39.412Z,12.30
2018-06-16T03:23:43.880Z,12.30
2018-06-16T03:28:48.339Z,12.20
2018-06-16T03:33:52.836Z,12.20
2018-06-16T03:38:57.453Z,12.20
2018-06-16T03:44:01.936Z,12.20
2018-06-16T03:49:07.007Z,12.20
2018-06-16T03:54:11.522Z,12.10
2018-06-16T03:59:16.021Z,12.00
2018-06-16T04:04:20.525Z,12.10
2018-06-16T04:09:25.041Z,12.20
2018-06-16T04:14:29.541Z,12.30
2018-06-16T04:19:34.033Z,12.40
2018-06-16T04:24:38.724Z,12.50
2018-06-16T04:29:43.252Z,12.60
2018-06-16T04:34:47.873Z,12.70
2018-06-16T04:39:52.691Z,12.90
2018-06-16T04:44:57.242Z,13.00
2018-06-16T04:50:01.828Z,13.20
2018-06-16T04:55:06.327Z,13.50
2018-06-16T05:00:10.802Z,13.70
2018-06-16T05:05:15.243Z,13.80
2018-06-16T05:10:19.784Z,14.00
2018-06-16T05:15:24.278Z,14.30
2018-06-16T05:20:28.722Z,14.50
2018-06-16T05:25:33.452Z,14.60
2018-06-16T05:30:37.921Z,14.60
2018-06-16T05:35:42.396Z,14.80
2018-06-16T05:40:46.916Z,15.00
2018-06-16T05:45:51.348Z,15.10
2018-06-16T05:50:55.925Z,15.40
2018-06-16T05:56:00.505Z,15.60
2018-06-16T06:01:05.150Z,15.90
2018-06-16T06:06:09.706Z,16.00
2018-06-16T06:11:15.323Z,16.20
2018-06-16T06:16:20.011Z,16.40
2018-06-16T06:21:24.612Z,16.60
2018-06-16T06:26:29.231Z,16.90
2018-06-16T06:31:33.766Z,17.10
2018-06-16T06:36:38.371Z,17.20
2018-06-16T06:41:43.038Z,17.20
2018-06-16T06:46:47.654Z,17.30
2018-06-16T06:51:52.287Z,17.30
2018-06-16T06:56:56.839Z,17.50
2018-06-16T07:02:03.845Z,17.80
2018-06-16T07:07:08.455Z,17.70
2018-06-16T07:12:12.998Z,17.80
2018-06-16T07:17:17.507Z,18.00
2018-06-16T07:22:22.584Z,18.30
2018-06-16T07:27:27.496Z,18.70
2018-06-16T07:32:33.025Z,18.70
2018-06-16T07:37:37.774Z,18.50
2018-06-16T10:00:32.720Z,18.80
2018-06-16T10:05:37.241Z,22.00
2018-06-16T10:10:41.674Z,22.40
2018-06-16T10:15:46.160Z,22.70
2018-06-16T10:20:50.678Z,22.40
2018-06-16T10:25:55.183Z,22.30
2018-06-16T10:30:59.666Z,23.10
2018-06-16T10:36:04.209Z,23.00
2018-06-16T10:41:08.690Z,23.20
2018-06-16T10:46:13.223Z,23.30
2018-06-16T10:51:17.683Z,23.40
2018-06-16T10:56:22.327Z,24.00
2018-06-16T11:01:27.059Z,24.00
2018-06-16T11:06:31.513Z,24.20
2018-06-16T11:11:36.177Z,24.90
2018-06-16T11:16:40.814Z,25.00
2018-06-16T11:21:45.205Z,25.40
2018-06-16T11:26:50.108Z,25.50
2018-06-16T11:31:54.820Z,25.80
2018-06-16T11:36:59.363Z,26.20
2018-06-16T11:42:03.930Z,26.00
2018-06-16T11:47:08.586Z,25.60
2018-06-16T11:52:13.119Z,26.10
2018-06-16T11:57:17.799Z,25.90
2018-06-16T12:02:22.395Z,26.10
2018-06-16T12:07:27.125Z,26.20
2018-06-16T12:12:31.761Z,27.20
2018-06-16T12:17:36.497Z,28.70
2018-06-16T12:22:41.083Z,30.00
2018-06-16T12:27:45.625Z,30.50
2018-06-16T12:32:50.095Z,31.30
2018-06-16T12:37:54.651Z,32.10
2018-06-16T12:42:59.087Z,32.80
2018-06-16T12:48:03.694Z,33.00
2018-06-16T12:53:08.176Z,33.70
2018-06-16T12:58:12.840Z,33.80
2018-06-16T13:03:17.396Z,34.60
2018-06-16T13:08:21.985Z,34.80
2018-06-16T13:13:26.514Z,34.60
2018-06-16T13:18:31.081Z,34.30
2018-06-16T13:23:35.664Z,34.80
2018-06-16T13:28:40.176Z,34.40
2018-06-16T13:33:44.806Z,35.10
2018-06-16T13:38:49.421Z,35.50
2018-06-16T13:43:54.002Z,35.40
2018-06-16T13:48:58.657Z,36.20
2018-06-16T13:54:03.241Z,35.70
2018-06-16T13:59:07.703Z,34.20
2018-06-16T14:04:12.229Z,32.80
2018-06-16T14:09:16.766Z,33.30
2018-06-16T14:14:21.244Z,34.50
2018-06-16T14:19:25.756Z,34.40
2018-06-16T14:24:30.388Z,33.30
2018-06-16T14:29:34.866Z,33.20
2018-06-16T14:34:39.483Z,32.40
2018-06-16T14:39:44.015Z,32.00
2018-06-16T14:44:48.741Z,32.20
2018-06-16T14:49:53.221Z,33.10
2018-06-16T14:54:57.787Z,34.20
2018-06-16T15:00:02.327Z,35.20
2018-06-16T15:05:06.843Z,32.80
2018-06-16T15:10:11.401Z,33.10
2018-06-16T15:15:15.930Z,33.70
2018-06-16T15:20:20.454Z,34.70
2018-06-16T15:25:25.072Z,35.60
2018-06-16T15:30:29.753Z,35.80
2018-06-16T15:35:34.359Z,34.70
2018-06-16T15:40:38.795Z,33.90
2018-06-16T15:45:43.353Z,32.70
2018-06-16T15:50:47.923Z,31.80
2018-06-16T15:55:53.342Z,32.90
2018-06-16T16:00:57.827Z,32.30
2018-06-16T16:06:02.306Z,30.40
2018-06-16T16:11:07.030Z,30.20
2018-06-16T16:16:11.494Z,32.60
2018-06-16T16:21:16.180Z,33.80
2018-06-16T16:26:20.738Z,31.40
2018-06-16T16:31:25.307Z,31.20
2018-06-16T16:36:29.823Z,32.40
2018-06-16T16:41:34.410Z,33.90
2018-06-16T16:46:38.910Z,34.40
2018-06-16T16:51:43.479Z,34.90
2018-06-16T16:56:48.054Z,35.00
2018-06-16T17:01:52.566Z,36.50
2018-06-16T17:06:57.116Z,35.20
2018-06-16T17:12:01.564Z,36.00
2018-06-16T17:17:06.122Z,33.40
2018-06-16T17:22:10.628Z,31.00
2018-06-16T17:27:15.325Z,28.90
2018-06-16T17:32:19.869Z,27.80
2018-06-16T17:37:24.410Z,26.90
2018-06-16T17:42:28.867Z,26.50
2018-06-16T17:47:33.347Z,26.00
2018-06-16T17:52:37.884Z,25.70
2018-06-16T17:57:42.336Z,25.50
2018-06-16T18:02:46.766Z,25.20
2018-06-16T18:07:51.310Z,25.00
2018-06-16T18:12:55.807Z,24.80
2018-06-16T18:18:00.275Z,24.70
2018-06-16T18:23:04.770Z,24.40
2018-06-16T18:28:09.508Z,24.20
2018-06-16T18:33:13.951Z,24.10
2018-06-16T18:38:18.751Z,23.90
2018-06-16T18:43:23.406Z,24.00
2018-06-16T18:48:27.909Z,23.70
2018-06-16T18:53:32.529Z,23.50
2018-06-16T18:58:37.316Z,23.40
2018-06-16T19:03:41.914Z,23.10
2018-06-16T19:08:46.425Z,22.70
2018-06-16T19:13:51.083Z,22.40
2018-06-16T19:18:55.764Z,21.70
2018-06-16T19:24:00.530Z,21.20
2018-06-16T19:29:05.096Z,20.90
2018-06-16T19:34:09.918Z,20.60
2018-06-16T19:39:14.575Z,20.40
2018-06-16T19:44:19.147Z,20.10
2018-06-16T19:49:23.873Z,20.10
2018-06-16T19:54:28.422Z,19.90
2018-06-16T19:59:33.080Z,19.70
2018-06-16T20:04:39.780Z,19.70
2018-06-16T20:09:44.590Z,19.60
2018-06-16T20:14:49.082Z,19.70
2018-06-16T20:19:53.695Z,19.70
2018-06-16T20:24:58.138Z,19.80
2018-06-16T20:30:02.634Z,19.80
2018-06-16T20:35:07.145Z,19.60
2018-06-16T20:40:13.272Z,19.40
2018-06-16T20:45:18.284Z,19.30
2018-06-16T20:50:24.076Z,19.30
2018-06-16T20:55:29.623Z,19.10
2018-06-16T21:00:35.527Z,18.80
2018-06-16T21:05:41.416Z,18.70
2018-06-16T21:10:46.740Z,18.60
2018-06-16T21:15:52.715Z,18.60
2018-06-16T21:20:57.323Z,18.70
2018-06-16T21:26:08.475Z,18.70
2018-06-16T21:31:13.096Z,18.60
2018-06-16T21:36:17.588Z,18.60
2018-06-16T21:41:22.041Z,18.70
2018-06-16T21:46:26.821Z,18.60
2018-06-16T21:51:31.269Z,18.50
2018-06-16T21:56:35.813Z,18.30
2018-06-16T22:01:40.585Z,18.20
2018-06-16T22:06:45.057Z,18.20
2018-06-16T22:11:49.778Z,18.30
2018-06-16T22:16:54.263Z,18.20
2018-06-16T22:21:58.831Z,18.10
2018-06-16T22:27:03.326Z,18.10
2018-06-16T22:32:07.856Z,18.10
2018-06-16T22:37:12.332Z,18.30
2018-06-16T22:42:16.931Z,18.30
2018-06-16T22:47:21.923Z,18.10
2018-06-16T22:52:26.330Z,17.90
2018-06-16T22:57:30.958Z,17.60
2018-06-16T23:02:35.758Z,17.50
2018-06-16T23:07:41.128Z,17.20
2018-06-16T23:12:45.698Z,17.00
2018-06-16T23:17:50.213Z,16.70
2018-06-16T23:22:54.758Z,16.50
2018-06-16T23:27:59.308Z,16.30
2018-06-16T23:33:03.987Z,16.40
2018-06-16T23:38:08.964Z,16.50
2018-06-16T23:43:13.511Z,16.60
2018-06-16T23:48:18.050Z,16.70
2018-06-16T23:53:23.855Z,16.70
2018-06-16T23:58:28.388Z,16.70
